sensor_id;sensor_type;location;lat;lon;timestamp;pressure;altitude;pressure_sealevel;temperature;humidity
43119;BME280;28729;49.838;8.650;2023-03-23T00:00:31;98977.28;;;15.14;56.63
43119;BME280;28729;49.838;8.650;2023-03-23T00:04:33;98978.34;;;15.18;56.38
43119;BME280;28729;49.838;8.650;2023-03-23T00:08:37;98975.03;;;15.16;56.70
43119;BME280;28729;49.838;8.650;2023-03-23T00:12:46;98975.63;;;15.13;57.12
43119;BME280;28729;49.838;8.650;2023-03-23T00:16:51;98966.50;;;15.12;57.28
43119;BME280;28729;49.838;8.650;2023-03-23T00:20:56;98974.22;;;15.15;57.22
43119;BME280;28729;49.838;8.650;2023-03-23T00:24:58;98967.75;;;15.20;57.04
43119;BME280;28729;49.838;8.650;2023-03-23T00:29:03;98961.63;;;15.23;56.94
43119;BME280;28729;49.838;8.650;2023-03-23T00:33:05;98960.69;;;15.27;56.86
43119;BME280;28729;49.838;8.650;2023-03-23T00:37:07;98948.16;;;15.30;56.87
43119;BME280;28729;49.838;8.650;2023-03-23T00:41:09;98937.81;;;15.36;56.78
43119;BME280;28729;49.838;8.650;2023-03-23T00:45:12;98944.25;;;15.31;56.83
43119;BME280;28729;49.838;8.650;2023-03-23T00:49:18;98936.75;;;15.32;57.34
43119;BME280;28729;49.838;8.650;2023-03-23T00:53:20;98944.72;;;15.38;56.91
43119;BME280;28729;49.838;8.650;2023-03-23T00:57:22;98945.81;;;15.37;57.22
43119;BME280;28729;49.838;8.650;2023-03-23T01:01:25;98946.13;;;15.36;57.58
43119;BME280;28729;49.838;8.650;2023-03-23T01:05:27;98938.09;;;15.34;58.07
43119;BME280;28729;49.838;8.650;2023-03-23T01:09:33;98931.31;;;15.26;58.76
43119;BME280;28729;49.838;8.650;2023-03-23T01:13:37;98930.09;;;15.14;60.29
43119;BME280;28729;49.838;8.650;2023-03-23T01:17:40;98927.09;;;15.10;60.39
43119;BME280;28729;49.838;8.650;2023-03-23T01:21:42;98931.31;;;15.08;60.05
43119;BME280;28729;49.838;8.650;2023-03-23T01:25:43;98924.66;;;15.09;59.75
43119;BME280;28729;49.838;8.650;2023-03-23T01:29:46;98925.75;;;15.08;59.52
43119;BME280;28729;49.838;8.650;2023-03-23T01:33:49;98936.25;;;15.11;59.68
43119;BME280;28729;49.838;8.650;2023-03-23T01:37:54;98925.75;;;15.08;59.67
43119;BME280;28729;49.838;8.650;2023-03-23T01:41:56;98907.53;;;15.01;59.75
43119;BME280;28729;49.838;8.650;2023-03-23T01:45:59;98927.72;;;15.07;59.36
43119;BME280;28729;49.838;8.650;2023-03-23T01:50:01;98911.88;;;15.08;59.27
43119;BME280;28729;49.838;8.650;2023-03-23T01:54:06;98912.19;;;15.06;59.39
43119;BME280;28729;49.838;8.650;2023-03-23T01:58:10;98916.63;;;15.07;58.96
43119;BME280;28729;49.838;8.650;2023-03-23T02:02:14;98907.41;;;15.12;59.02
43119;BME280;28729;49.838;8.650;2023-03-23T02:06:19;98904.41;;;15.08;59.25
43119;BME280;28729;49.838;8.650;2023-03-23T02:10:40;98892.78;;;15.06;59.23
43119;BME280;28729;49.838;8.650;2023-03-23T02:14:52;98910.56;;;15.05;59.47
43119;BME280;28729;49.838;8.650;2023-03-23T02:31:54;98911.69;;;14.85;61.07
43119;BME280;28729;49.838;8.650;2023-03-23T02:36:23;98905.06;;;14.81;61.76
43119;BME280;28729;49.838;8.650;2023-03-23T02:40:32;98901.25;;;14.77;61.53
43119;BME280;28729;49.838;8.650;2023-03-23T02:44:37;98884.94;;;14.75;61.65
43119;BME280;28729;49.838;8.650;2023-03-23T02:48:42;98874.94;;;14.74;61.61
43119;BME280;28729;49.838;8.650;2023-03-23T02:52:46;98893.00;;;14.72;61.53
43119;BME280;28729;49.838;8.650;2023-03-23T02:56:50;98884.19;;;14.70;61.65
43119;BME280;28729;49.838;8.650;2023-03-23T03:00:57;98882.50;;;14.69;62.55
43119;BME280;28729;49.838;8.650;2023-03-23T03:09:21;98876.16;;;14.68;62.81
43119;BME280;28729;49.838;8.650;2023-03-23T03:18:34;98867.75;;;14.54;64.88
43119;BME280;28729;49.838;8.650;2023-03-23T03:22:41;98868.06;;;14.53;64.66
43119;BME280;28729;49.838;8.650;2023-03-23T03:26:47;98864.91;;;14.59;64.03
43119;BME280;28729;49.838;8.650;2023-03-23T03:30:58;98856.81;;;14.63;63.74
43119;BME280;28729;49.838;8.650;2023-03-23T03:35:02;98848.13;;;14.70;63.26
43119;BME280;28729;49.838;8.650;2023-03-23T03:39:07;98850.31;;;14.73;62.73
43119;BME280;28729;49.838;8.650;2023-03-23T03:43:10;98850.81;;;14.75;62.71
43119;BME280;28729;49.838;8.650;2023-03-23T03:47:12;98840.25;;;14.77;62.27
43119;BME280;28729;49.838;8.650;2023-03-23T03:51:14;98837.25;;;14.73;63.54
43119;BME280;28729;49.838;8.650;2023-03-23T03:55:20;98833.56;;;14.78;63.59
43119;BME280;28729;49.838;8.650;2023-03-23T03:59:24;98825.25;;;14.78;63.20
43119;BME280;28729;49.838;8.650;2023-03-23T04:03:45;98832.16;;;14.80;63.39
43119;BME280;28729;49.838;8.650;2023-03-23T04:08:03;98843.44;;;14.84;62.99
43119;BME280;28729;49.838;8.650;2023-03-23T04:12:10;98835.66;;;14.86;63.26
43119;BME280;28729;49.838;8.650;2023-03-23T04:16:27;98846.75;;;14.86;62.84
43119;BME280;28729;49.838;8.650;2023-03-23T04:20:32;98852.38;;;14.81;62.73
43119;BME280;28729;49.838;8.650;2023-03-23T04:24:36;98854.78;;;14.88;63.41
43119;BME280;28729;49.838;8.650;2023-03-23T04:28:58;98869.56;;;14.83;63.28
43119;BME280;28729;49.838;8.650;2023-03-23T04:33:31;98866.56;;;14.79;64.51
43119;BME280;28729;49.838;8.650;2023-03-23T04:37:56;98882.44;;;14.74;65.09
43119;BME280;28729;49.838;8.650;2023-03-23T04:41:59;98886.19;;;14.64;66.35
43119;BME280;28729;49.838;8.650;2023-03-23T04:46:26;98884.09;;;14.56;67.11
43119;BME280;28729;49.838;8.650;2023-03-23T04:50:34;98897.16;;;14.50;67.67
43119;BME280;28729;49.838;8.650;2023-03-23T04:54:47;98893.63;;;14.45;68.23
43119;BME280;28729;49.838;8.650;2023-03-23T04:58:49;98890.69;;;14.36;69.16
43119;BME280;28729;49.838;8.650;2023-03-23T05:03:07;98895.03;;;14.42;68.30
43119;BME280;28729;49.838;8.650;2023-03-23T05:07:11;98905.78;;;14.49;68.05
43119;BME280;28729;49.838;8.650;2023-03-23T05:11:19;98922.09;;;14.55;67.83
43119;BME280;28729;49.838;8.650;2023-03-23T05:15:23;98916.81;;;14.54;69.48
43119;BME280;28729;49.838;8.650;2023-03-23T05:19:25;98926.06;;;14.68;68.94
43119;BME280;28729;49.838;8.650;2023-03-23T05:23:31;98934.91;;;14.70;69.50
43119;BME280;28729;49.838;8.650;2023-03-23T05:27:44;98932.41;;;14.69;70.84
43119;BME280;28729;49.838;8.650;2023-03-23T05:31:56;98935.28;;;14.64;71.70
43119;BME280;28729;49.838;8.650;2023-03-23T05:36:02;98928.66;;;14.59;72.23
43119;BME280;28729;49.838;8.650;2023-03-23T05:40:16;98907.22;;;14.46;74.64
43119;BME280;28729;49.838;8.650;2023-03-23T05:44:24;98914.66;;;14.27;77.18
43119;BME280;28729;49.838;8.650;2023-03-23T05:48:30;98930.69;;;14.06;79.47
43119;BME280;28729;49.838;8.650;2023-03-23T05:52:33;98919.91;;;14.04;78.85
43119;BME280;28729;49.838;8.650;2023-03-23T05:56:40;98920.69;;;14.10;79.20
43119;BME280;28729;49.838;8.650;2023-03-23T06:00:55;98939.63;;;14.22;78.53
43119;BME280;28729;49.838;8.650;2023-03-23T06:05:02;98932.41;;;14.26;77.88
43119;BME280;28729;49.838;8.650;2023-03-23T06:09:08;98929.69;;;14.21;79.05
43119;BME280;28729;49.838;8.650;2023-03-23T06:13:35;98939.63;;;14.22;78.79
43119;BME280;28729;49.838;8.650;2023-03-23T06:17:42;98955.16;;;14.23;79.67
43119;BME280;28729;49.838;8.650;2023-03-23T06:21:46;98966.28;;;14.18;80.75
43119;BME280;28729;49.838;8.650;2023-03-23T06:26:27;98969.41;;;14.11;82.02
43119;BME280;28729;49.838;8.650;2023-03-23T06:30:34;98977.50;;;14.07;83.46
43119;BME280;28729;49.838;8.650;2023-03-23T06:34:38;98980.09;;;13.99;86.62
43119;BME280;28729;49.838;8.650;2023-03-23T06:38:54;98975.38;;;13.99;87.42
43119;BME280;28729;49.838;8.650;2023-03-23T06:43:06;98988.75;;;13.92;88.15
43119;BME280;28729;49.838;8.650;2023-03-23T06:47:32;98992.13;;;13.84;90.47
43119;BME280;28729;49.838;8.650;2023-03-23T06:51:34;98996.09;;;13.73;92.61
43119;BME280;28729;49.838;8.650;2023-03-23T06:55:39;99002.50;;;13.68;93.91
43119;BME280;28729;49.838;8.650;2023-03-23T06:59:42;98994.06;;;13.54;96.87
43119;BME280;28729;49.838;8.650;2023-03-23T07:03:45;98995.72;;;13.50;95.94
43119;BME280;28729;49.838;8.650;2023-03-23T07:07:53;99000.16;;;13.51;97.78
43119;BME280;28729;49.838;8.650;2023-03-23T07:12:06;98993.47;;;13.57;97.39
43119;BME280;28729;49.838;8.650;2023-03-23T07:16:18;98991.69;;;13.72;95.27
43119;BME280;28729;49.838;8.650;2023-03-23T07:20:22;98997.44;;;13.80;93.81
43119;BME280;28729;49.838;8.650;2023-03-23T07:24:24;99007.81;;;13.94;92.91
43119;BME280;28729;49.838;8.650;2023-03-23T07:28:38;98997.75;;;14.03;92.55
43119;BME280;28729;49.838;8.650;2023-03-23T07:33:12;99000.25;;;14.04;92.84
43119;BME280;28729;49.838;8.650;2023-03-23T07:37:16;99008.16;;;13.87;95.13
43119;BME280;28729;49.838;8.650;2023-03-23T07:41:23;99015.34;;;13.88;94.60
43119;BME280;28729;49.838;8.650;2023-03-23T07:45:29;99024.00;;;13.81;94.46
43119;BME280;28729;49.838;8.650;2023-03-23T07:49:32;99026.00;;;13.71;94.42
43119;BME280;28729;49.838;8.650;2023-03-23T07:53:49;99028.53;;;13.67;95.14
43119;BME280;28729;49.838;8.650;2023-03-23T07:58:15;99027.13;;;13.70;94.50
43119;BME280;28729;49.838;8.650;2023-03-23T08:02:27;99021.84;;;13.73;94.60
43119;BME280;28729;49.838;8.650;2023-03-23T08:06:56;99014.63;;;13.77;94.70
43119;BME280;28729;49.838;8.650;2023-03-23T08:11:14;99021.19;;;13.86;93.85
43119;BME280;28729;49.838;8.650;2023-03-23T08:15:29;99043.78;;;13.99;92.60
43119;BME280;28729;49.838;8.650;2023-03-23T08:19:44;99046.31;;;13.95;93.52
43119;BME280;28729;49.838;8.650;2023-03-23T08:24:17;99058.28;;;13.85;94.60
43119;BME280;28729;49.838;8.650;2023-03-23T08:28:56;99064.53;;;14.01;93.23
43119;BME280;28729;49.838;8.650;2023-03-23T08:33:25;99067.59;;;14.00;93.99
43119;BME280;28729;49.838;8.650;2023-03-23T08:37:51;99065.97;;;13.94;95.34
43119;BME280;28729;49.838;8.650;2023-03-23T08:42:13;99081.75;;;13.98;95.00
43119;BME280;28729;49.838;8.650;2023-03-23T08:46:29;99079.56;;;13.95;95.53
43119;BME280;28729;49.838;8.650;2023-03-23T08:50:55;99094.75;;;13.98;95.53
43119;BME280;28729;49.838;8.650;2023-03-23T08:55:28;99106.16;;;13.91;97.17
43119;BME280;28729;49.838;8.650;2023-03-23T08:59:46;99108.91;;;13.96;98.70
43119;BME280;28729;49.838;8.650;2023-03-23T09:03:54;99108.34;;;13.94;100.00
43119;BME280;28729;49.838;8.650;2023-03-23T09:08:17;99101.16;;;13.93;100.00
43119;BME280;28729;49.838;8.650;2023-03-23T09:12:21;99098.63;;;13.97;99.92
43119;BME280;28729;49.838;8.650;2023-03-23T09:16:25;99105.25;;;14.01;98.76
43119;BME280;28729;49.838;8.650;2023-03-23T09:20:28;99092.03;;;14.22;97.19
43119;BME280;28729;49.838;8.650;2023-03-23T09:24:32;99099.63;;;14.40;94.44
43119;BME280;28729;49.838;8.650;2023-03-23T09:28:36;99100.09;;;14.52;93.98
43119;BME280;28729;49.838;8.650;2023-03-23T09:32:38;99107.19;;;14.64;92.11
43119;BME280;28729;49.838;8.650;2023-03-23T09:36:44;99110.19;;;14.67;91.12
43119;BME280;28729;49.838;8.650;2023-03-23T09:41:02;99113.44;;;14.98;88.56
43119;BME280;28729;49.838;8.650;2023-03-23T09:45:19;99111.06;;;15.11;86.93
43119;BME280;28729;49.838;8.650;2023-03-23T09:53:48;99106.16;;;15.45;82.04
43119;BME280;28729;49.838;8.650;2023-03-23T09:57:56;99121.16;;;15.68;80.37
43119;BME280;28729;49.838;8.650;2023-03-23T10:02:12;99106.88;;;15.75;79.02
43119;BME280;28729;49.838;8.650;2023-03-23T10:06:19;99102.75;;;15.91;78.02
43119;BME280;28729;49.838;8.650;2023-03-23T10:10:39;99103.22;;;15.80;78.73
43119;BME280;28729;49.838;8.650;2023-03-23T10:15:04;99093.59;;;15.72;78.75
43119;BME280;28729;49.838;8.650;2023-03-23T10:19:26;99097.03;;;15.83;79.29
43119;BME280;28729;49.838;8.650;2023-03-23T10:28:09;99107.63;;;15.62;80.70
43119;BME280;28729;49.838;8.650;2023-03-23T10:32:17;99124.13;;;15.53;81.76
43119;BME280;28729;49.838;8.650;2023-03-23T10:36:30;99127.72;;;15.54;82.37
43119;BME280;28729;49.838;8.650;2023-03-23T10:40:34;99125.16;;;15.38;82.72
43119;BME280;28729;49.838;8.650;2023-03-23T10:44:39;99139.41;;;15.08;88.46
43119;BME280;28729;49.838;8.650;2023-03-23T10:48:43;99130.22;;;14.88;90.02
43119;BME280;28729;49.838;8.650;2023-03-23T10:52:50;99122.06;;;14.73;92.02
43119;BME280;28729;49.838;8.650;2023-03-23T10:56:54;99118.63;;;14.81;90.98
43119;BME280;28729;49.838;8.650;2023-03-23T11:01:03;99125.53;;;14.84;90.67
43119;BME280;28729;49.838;8.650;2023-03-23T11:05:16;99116.94;;;14.85;90.35
43119;BME280;28729;49.838;8.650;2023-03-23T11:09:34;99120.16;;;14.92;90.79
43119;BME280;28729;49.838;8.650;2023-03-23T11:13:43;99121.56;;;15.14;89.00
43119;BME280;28729;49.838;8.650;2023-03-23T11:17:59;99124.03;;;15.39;86.18
43119;BME280;28729;49.838;8.650;2023-03-23T11:26:20;99113.72;;;15.83;82.20
43119;BME280;28729;49.838;8.650;2023-03-23T11:30:25;99131.28;;;15.78;81.21
43119;BME280;28729;49.838;8.650;2023-03-23T11:34:33;99127.75;;;15.91;81.32
43119;BME280;28729;49.838;8.650;2023-03-23T11:38:36;99115.09;;;15.99;80.70
43119;BME280;28729;49.838;8.650;2023-03-23T11:47:15;99117.38;;;15.78;80.73
43119;BME280;28729;49.838;8.650;2023-03-23T11:51:27;99124.75;;;15.69;81.17
43119;BME280;28729;49.838;8.650;2023-03-23T11:55:53;99122.38;;;15.38;83.68
43119;BME280;28729;49.838;8.650;2023-03-23T11:59:57;99128.38;;;15.26;84.70
43119;BME280;28729;49.838;8.650;2023-03-23T12:09:32;99103.84;;;14.91;88.11
43119;BME280;28729;49.838;8.650;2023-03-23T12:14:02;99100.56;;;14.84;89.06
43119;BME280;28729;49.838;8.650;2023-03-23T12:18:19;99112.06;;;14.72;90.23
43119;BME280;28729;49.838;8.650;2023-03-23T12:27:14;99108.44;;;14.76;91.63
43119;BME280;28729;49.838;8.650;2023-03-23T12:35:52;99078.56;;;14.92;90.97
43119;BME280;28729;49.838;8.650;2023-03-23T12:40:51;99060.22;;;15.15;89.96
43119;BME280;28729;49.838;8.650;2023-03-23T12:44:52;99054.25;;;15.65;87.92
43119;BME280;28729;49.838;8.650;2023-03-23T12:49:02;99049.50;;;16.17;84.83
43119;BME280;28729;49.838;8.650;2023-03-23T12:57:24;99051.59;;;17.22;78.95
43119;BME280;28729;49.838;8.650;2023-03-23T13:01:33;99050.75;;;17.71;74.75
43119;BME280;28729;49.838;8.650;2023-03-23T13:14:06;99049.34;;;17.10;75.17
43119;BME280;28729;49.838;8.650;2023-03-23T13:18:41;99044.44;;;16.79;77.31
43119;BME280;28729;49.838;8.650;2023-03-23T13:22:50;99042.13;;;16.68;77.43
43119;BME280;28729;49.838;8.650;2023-03-23T13:26:58;99042.81;;;16.32;78.94
43119;BME280;28729;49.838;8.650;2023-03-23T13:31:17;99041.31;;;16.39;78.97
43119;BME280;28729;49.838;8.650;2023-03-23T13:35:37;99038.31;;;16.50;76.89
43119;BME280;28729;49.838;8.650;2023-03-23T13:39:55;99040.53;;;16.20;77.84
43119;BME280;28729;49.838;8.650;2023-03-23T13:44:16;99049.69;;;16.07;78.30
43119;BME280;28729;49.838;8.650;2023-03-23T13:48:24;99030.94;;;15.99;78.31
43119;BME280;28729;49.838;8.650;2023-03-23T13:57:01;99029.25;;;16.44;74.91
43119;BME280;28729;49.838;8.650;2023-03-23T14:01:15;99022.03;;;16.98;73.57
43119;BME280;28729;49.838;8.650;2023-03-23T14:09:32;99036.19;;;17.02;72.82
43119;BME280;28729;49.838;8.650;2023-03-23T14:17:45;99052.03;;;16.74;74.47
43119;BME280;28729;49.838;8.650;2023-03-23T14:21:58;99042.75;;;16.51;75.47
43119;BME280;28729;49.838;8.650;2023-03-23T14:26:10;99045.19;;;16.38;76.65
43119;BME280;28729;49.838;8.650;2023-03-23T14:30:21;99040.25;;;16.35;76.75
43119;BME280;28729;49.838;8.650;2023-03-23T14:34:29;99045.41;;;16.28;77.15
43119;BME280;28729;49.838;8.650;2023-03-23T14:38:34;99054.03;;;16.27;77.83
43119;BME280;28729;49.838;8.650;2023-03-23T14:42:37;99035.91;;;16.15;78.48
43119;BME280;28729;49.838;8.650;2023-03-23T14:46:41;99042.47;;;16.06;78.75
43119;BME280;28729;49.838;8.650;2023-03-23T14:50:50;99031.78;;;16.13;78.53
43119;BME280;28729;49.838;8.650;2023-03-23T14:54:53;99036.28;;;16.09;78.14
43119;BME280;28729;49.838;8.650;2023-03-23T14:59:03;99037.38;;;15.94;79.25
43119;BME280;28729;49.838;8.650;2023-03-23T15:03:11;99042.13;;;15.93;79.09
43119;BME280;28729;49.838;8.650;2023-03-23T15:07:15;99036.88;;;15.92;79.82
43119;BME280;28729;49.838;8.650;2023-03-23T15:11:28;99033.38;;;15.86;80.16
43119;BME280;28729;49.838;8.650;2023-03-23T15:15:34;99022.47;;;15.90;79.62
43119;BME280;28729;49.838;8.650;2023-03-23T15:19:41;99020.28;;;15.87;80.69
43119;BME280;28729;49.838;8.650;2023-03-23T15:23:44;99021.78;;;15.98;80.14
43119;BME280;28729;49.838;8.650;2023-03-23T15:27:55;99026.41;;;16.03;79.93
43119;BME280;28729;49.838;8.650;2023-03-23T15:31:57;99021.97;;;16.02;80.02
43119;BME280;28729;49.838;8.650;2023-03-23T15:36:14;99014.66;;;16.06;79.61
43119;BME280;28729;49.838;8.650;2023-03-23T15:40:21;99029.00;;;16.13;79.52
43119;BME280;28729;49.838;8.650;2023-03-23T15:44:31;99024.81;;;16.15;79.16
43119;BME280;28729;49.838;8.650;2023-03-23T15:49:10;99027.47;;;16.07;79.30
43119;BME280;28729;49.838;8.650;2023-03-23T15:53:23;99029.44;;;15.87;80.61
43119;BME280;28729;49.838;8.650;2023-03-23T15:57:29;99028.56;;;15.73;82.35
43119;BME280;28729;49.838;8.650;2023-03-23T16:01:31;99041.13;;;15.70;83.08
43119;BME280;28729;49.838;8.650;2023-03-23T16:05:33;99048.47;;;15.80;82.76
43119;BME280;28729;49.838;8.650;2023-03-23T16:09:39;99037.44;;;15.75;82.88
43119;BME280;28729;49.838;8.650;2023-03-23T16:13:45;99042.00;;;15.66;83.04
43119;BME280;28729;49.838;8.650;2023-03-23T16:17:49;99027.81;;;15.67;83.24
43119;BME280;28729;49.838;8.650;2023-03-23T16:21:51;99030.88;;;15.66;84.07
43119;BME280;28729;49.838;8.650;2023-03-23T16:25:53;99031.28;;;15.59;84.19
43119;BME280;28729;49.838;8.650;2023-03-23T16:29:57;99028.28;;;15.56;84.78
43119;BME280;28729;49.838;8.650;2023-03-23T16:34:05;99026.78;;;15.44;86.03
43119;BME280;28729;49.838;8.650;2023-03-23T16:38:11;99028.88;;;15.34;87.95
43119;BME280;28729;49.838;8.650;2023-03-23T16:42:16;99027.63;;;15.26;88.26
43119;BME280;28729;49.838;8.650;2023-03-23T16:46:18;99032.25;;;15.12;90.20
43119;BME280;28729;49.838;8.650;2023-03-23T16:50:20;99024.16;;;14.96;91.93
43119;BME280;28729;49.838;8.650;2023-03-23T16:54:22;99026.94;;;14.96;92.05
43119;BME280;28729;49.838;8.650;2023-03-23T16:58:30;99037.53;;;14.89;93.09
43119;BME280;28729;49.838;8.650;2023-03-23T17:02:34;99030.13;;;14.85;93.43
43119;BME280;28729;49.838;8.650;2023-03-23T17:06:39;99015.50;;;14.79;93.52
43119;BME280;28729;49.838;8.650;2023-03-23T17:10:46;99013.91;;;14.73;93.91
43119;BME280;28729;49.838;8.650;2023-03-23T17:14:49;99006.28;;;14.59;94.79
43119;BME280;28729;49.838;8.650;2023-03-23T17:18:52;99000.31;;;14.47;96.13
43119;BME280;28729;49.838;8.650;2023-03-23T17:22:54;99001.28;;;14.38;97.10
43119;BME280;28729;49.838;8.650;2023-03-23T17:26:56;99000.50;;;14.32;97.88
43119;BME280;28729;49.838;8.650;2023-03-23T17:30:58;98999.44;;;14.28;97.79
43119;BME280;28729;49.838;8.650;2023-03-23T17:35:01;99014.75;;;14.20;98.30
43119;BME280;28729;49.838;8.650;2023-03-23T17:39:03;99008.44;;;14.14;98.85
43119;BME280;28729;49.838;8.650;2023-03-23T17:43:05;99014.03;;;14.09;98.47
43119;BME280;28729;49.838;8.650;2023-03-23T17:47:09;99021.56;;;14.04;99.16
43119;BME280;28729;49.838;8.650;2023-03-23T17:51:12;99023.03;;;13.96;100.00
43119;BME280;28729;49.838;8.650;2023-03-23T17:55:14;99015.53;;;13.97;100.00
43119;BME280;28729;49.838;8.650;2023-03-23T17:59:16;99013.00;;;14.00;100.00
43119;BME280;28729;49.838;8.650;2023-03-23T18:03:18;99015.50;;;14.02;100.00
43119;BME280;28729;49.838;8.650;2023-03-23T18:07:20;99019.06;;;14.07;100.00
43119;BME280;28729;49.838;8.650;2023-03-23T18:11:24;99015.38;;;14.12;100.00
43119;BME280;28729;49.838;8.650;2023-03-23T18:15:26;99019.25;;;14.16;100.00
43119;BME280;28729;49.838;8.650;2023-03-23T18:19:30;99010.09;;;14.16;100.00
43119;BME280;28729;49.838;8.650;2023-03-23T18:23:35;99018.91;;;14.23;100.00
43119;BME280;28729;49.838;8.650;2023-03-23T18:27:50;99024.91;;;14.30;99.95
43119;BME280;28729;49.838;8.650;2023-03-23T18:31:51;99015.94;;;14.38;99.48
43119;BME280;28729;49.838;8.650;2023-03-23T18:35:57;99006.22;;;14.41;100.00
43119;BME280;28729;49.838;8.650;2023-03-23T18:40:00;99004.81;;;14.43;100.00
43119;BME280;28729;49.838;8.650;2023-03-23T18:44:02;99003.09;;;14.47;99.70
43119;BME280;28729;49.838;8.650;2023-03-23T18:48:06;99009.19;;;14.49;100.00
43119;BME280;28729;49.838;8.650;2023-03-23T18:52:09;99000.84;;;14.49;100.00
43119;BME280;28729;49.838;8.650;2023-03-23T18:56:15;99005.59;;;14.49;100.00
43119;BME280;28729;49.838;8.650;2023-03-23T19:00:17;98995.00;;;14.51;100.00
43119;BME280;28729;49.838;8.650;2023-03-23T19:04:19;98998.38;;;14.48;100.00
43119;BME280;28729;49.838;8.650;2023-03-23T19:08:23;98999.47;;;14.52;100.00
43119;BME280;28729;49.838;8.650;2023-03-23T19:12:25;98996.41;;;14.53;100.00
43119;BME280;28729;49.838;8.650;2023-03-23T19:16:28;99003.31;;;14.56;100.00
43119;BME280;28729;49.838;8.650;2023-03-23T19:20:31;99001.34;;;14.56;100.00
43119;BME280;28729;49.838;8.650;2023-03-23T19:24:55;98999.72;;;14.55;100.00
43119;BME280;28729;49.838;8.650;2023-03-23T19:28:57;98999.94;;;14.59;100.00
43119;BME280;28729;49.838;8.650;2023-03-23T19:33:03;98998.03;;;14.54;100.00
43119;BME280;28729;49.838;8.650;2023-03-23T19:37:05;98989.22;;;14.52;100.00
43119;BME280;28729;49.838;8.650;2023-03-23T19:41:12;98982.84;;;14.52;100.00
43119;BME280;28729;49.838;8.650;2023-03-23T19:45:15;98973.13;;;14.49;100.00
43119;BME280;28729;49.838;8.650;2023-03-23T19:49:17;98974.78;;;14.50;100.00
43119;BME280;28729;49.838;8.650;2023-03-23T19:53:20;98974.25;;;14.48;100.00
43119;BME280;28729;49.838;8.650;2023-03-23T19:57:23;98967.59;;;14.49;100.00
43119;BME280;28729;49.838;8.650;2023-03-23T20:01:25;98964.28;;;14.47;100.00
43119;BME280;28729;49.838;8.650;2023-03-23T20:05:32;98962.94;;;14.45;100.00
43119;BME280;28729;49.838;8.650;2023-03-23T20:09:37;98969.38;;;14.40;100.00
43119;BME280;28729;49.838;8.650;2023-03-23T20:13:39;98958.56;;;14.39;100.00
43119;BME280;28729;49.838;8.650;2023-03-23T20:17:42;98950.03;;;14.35;100.00
43119;BME280;28729;49.838;8.650;2023-03-23T20:21:44;98943.44;;;14.31;100.00
43119;BME280;28729;49.838;8.650;2023-03-23T20:25:46;98936.81;;;14.27;100.00
43119;BME280;28729;49.838;8.650;2023-03-23T20:29:50;98928.56;;;14.22;100.00
43119;BME280;28729;49.838;8.650;2023-03-23T20:33:58;98927.31;;;14.09;100.00
43119;BME280;28729;49.838;8.650;2023-03-23T20:38:02;98927.72;;;13.97;100.00
43119;BME280;28729;49.838;8.650;2023-03-23T20:42:09;98923.91;;;13.93;100.00
43119;BME280;28729;49.838;8.650;2023-03-23T20:46:11;98917.59;;;13.87;100.00
43119;BME280;28729;49.838;8.650;2023-03-23T20:50:13;98917.88;;;13.86;100.00
43119;BME280;28729;49.838;8.650;2023-03-23T20:54:17;98910.34;;;13.91;100.00
43119;BME280;28729;49.838;8.650;2023-03-23T20:58:20;98911.28;;;14.06;100.00
43119;BME280;28729;49.838;8.650;2023-03-23T21:02:23;98903.09;;;14.20;98.68
43119;BME280;28729;49.838;8.650;2023-03-23T21:06:26;98903.44;;;14.37;96.45
43119;BME280;28729;49.838;8.650;2023-03-23T21:10:29;98901.00;;;14.54;93.05
43119;BME280;28729;49.838;8.650;2023-03-23T21:14:32;98902.69;;;14.74;90.72
43119;BME280;28729;49.838;8.650;2023-03-23T21:18:34;98895.41;;;14.97;89.95
43119;BME280;28729;49.838;8.650;2023-03-23T21:22:35;98894.19;;;15.03;88.23
43119;BME280;28729;49.838;8.650;2023-03-23T21:26:38;98887.44;;;15.10;87.81
43119;BME280;28729;49.838;8.650;2023-03-23T21:30:40;98881.28;;;15.13;86.68
43119;BME280;28729;49.838;8.650;2023-03-23T21:34:46;98869.06;;;15.14;86.33
43119;BME280;28729;49.838;8.650;2023-03-23T21:38:49;98878.72;;;15.16;85.26
43119;BME280;28729;49.838;8.650;2023-03-23T21:42:50;98869.72;;;15.24;84.68
43119;BME280;28729;49.838;8.650;2023-03-23T21:46:53;98865.50;;;15.27;83.65
43119;BME280;28729;49.838;8.650;2023-03-23T21:50:55;98872.31;;;15.35;83.42
43119;BME280;28729;49.838;8.650;2023-03-23T21:54:57;98871.28;;;15.31;82.52
43119;BME280;28729;49.838;8.650;2023-03-23T21:58:59;98865.84;;;15.39;82.07
43119;BME280;28729;49.838;8.650;2023-03-23T22:03:02;98861.94;;;15.40;82.11
43119;BME280;28729;49.838;8.650;2023-03-23T22:07:05;98856.38;;;15.40;82.11
43119;BME280;28729;49.838;8.650;2023-03-23T22:11:20;98851.56;;;15.46;81.52
43119;BME280;28729;49.838;8.650;2023-03-23T22:15:23;98857.94;;;15.46;81.69
43119;BME280;28729;49.838;8.650;2023-03-23T22:19:28;98851.97;;;15.39;81.53
43119;BME280;28729;49.838;8.650;2023-03-23T22:23:30;98845.28;;;15.40;81.96
43119;BME280;28729;49.838;8.650;2023-03-23T22:27:31;98853.09;;;15.38;82.01
43119;BME280;28729;49.838;8.650;2023-03-23T22:31:33;98847.75;;;15.42;82.27
43119;BME280;28729;49.838;8.650;2023-03-23T22:35:35;98845.19;;;15.45;82.51
43119;BME280;28729;49.838;8.650;2023-03-23T22:39:38;98833.16;;;15.36;82.27
43119;BME280;28729;49.838;8.650;2023-03-23T22:43:39;98835.63;;;15.38;82.63
43119;BME280;28729;49.838;8.650;2023-03-23T22:47:41;98819.28;;;15.36;82.59
43119;BME280;28729;49.838;8.650;2023-03-23T22:51:43;98816.78;;;15.35;82.77
43119;BME280;28729;49.838;8.650;2023-03-23T22:55:48;98820.09;;;15.37;82.84
43119;BME280;28729;49.838;8.650;2023-03-23T22:59:50;98824.00;;;15.36;82.52
43119;BME280;28729;49.838;8.650;2023-03-23T23:03:51;98818.44;;;15.36;82.28
43119;BME280;28729;49.838;8.650;2023-03-23T23:07:53;98826.56;;;15.32;84.22